sensor_id;sensor_type;location;lat;lon;timestamp;temperature;humidity
6520;DHT22;3293;51.690;5.982;2023-04-03T00:01:47;1.80;99.90
6520;DHT22;3293;51.690;5.982;2023-04-03T00:06:48;1.60;99.90
6520;DHT22;3293;51.690;5.982;2023-04-03T00:11:48;1.50;99.90
6520;DHT22;3293;51.690;5.982;2023-04-03T00:16:47;1.40;99.90
6520;DHT22;3293;51.690;5.982;2023-04-03T00:21:47;1.40;99.90
6520;DHT22;3293;51.690;5.982;2023-04-03T00:26:47;1.30;99.90
6520;DHT22;3293;51.690;5.982;2023-04-03T00:31:47;1.40;99.90
6520;DHT22;3293;51.690;5.982;2023-04-03T00:36:47;1.40;99.90
6520;DHT22;3293;51.690;5.982;2023-04-03T00:41:47;1.50;99.90
6520;DHT22;3293;51.690;5.982;2023-04-03T00:46:47;1.60;99.90
6520;DHT22;3293;51.690;5.982;2023-04-03T00:51:47;1.80;99.90
6520;DHT22;3293;51.690;5.982;2023-04-03T00:56:48;2.00;99.90
6520;DHT22;3293;51.690;5.982;2023-04-03T01:01:49;2.00;99.90
6520;DHT22;3293;51.690;5.982;2023-04-03T01:06:50;2.00;99.90
6520;DHT22;3293;51.690;5.982;2023-04-03T01:11:50;2.00;99.90
6520;DHT22;3293;51.690;5.982;2023-04-03T01:16:56;2.10;99.90
6520;DHT22;3293;51.690;5.982;2023-04-03T01:22:10;2.20;99.90
6520;DHT22;3293;51.690;5.982;2023-04-03T01:27:16;2.20;99.90
6520;DHT22;3293;51.690;5.982;2023-04-03T01:32:16;2.20;99.90
6520;DHT22;3293;51.690;5.982;2023-04-03T01:37:16;2.20;99.90
6520;DHT22;3293;51.690;5.982;2023-04-03T01:42:16;2.20;99.90
6520;DHT22;3293;51.690;5.982;2023-04-03T01:47:16;2.10;99.90
6520;DHT22;3293;51.690;5.982;2023-04-03T01:52:16;2.20;99.90
6520;DHT22;3293;51.690;5.982;2023-04-03T01:57:17;2.20;99.90
6520;DHT22;3293;51.690;5.982;2023-04-03T02:02:18;2.10;99.90
6520;DHT22;3293;51.690;5.982;2023-04-03T02:07:20;2.20;99.90
6520;DHT22;3293;51.690;5.982;2023-04-03T02:12:21;2.10;99.90
6520;DHT22;3293;51.690;5.982;2023-04-03T02:17:21;2.00;99.90
6520;DHT22;3293;51.690;5.982;2023-04-03T02:22:21;2.10;99.90
6520;DHT22;3293;51.690;5.982;2023-04-03T02:27:21;2.00;99.90
6520;DHT22;3293;51.690;5.982;2023-04-03T02:32:21;2.10;99.90
6520;DHT22;3293;51.690;5.982;2023-04-03T02:37:21;2.10;99.90
6520;DHT22;3293;51.690;5.982;2023-04-03T02:42:21;2.10;99.90
6520;DHT22;3293;51.690;5.982;2023-04-03T02:47:21;1.90;99.90
6520;DHT22;3293;51.690;5.982;2023-04-03T02:52:21;1.90;99.90
6520;DHT22;3293;51.690;5.982;2023-04-03T02:57:22;1.90;99.90
6520;DHT22;3293;51.690;5.982;2023-04-03T03:02:22;1.90;99.90
6520;DHT22;3293;51.690;5.982;2023-04-03T03:07:22;1.80;99.90
6520;DHT22;3293;51.690;5.982;2023-04-03T03:12:22;1.80;99.90
6520;DHT22;3293;51.690;5.982;2023-04-03T03:17:23;1.80;99.90
6520;DHT22;3293;51.690;5.982;2023-04-03T03:22:24;1.80;99.90
6520;DHT22;3293;51.690;5.982;2023-04-03T03:27:23;1.80;99.90
6520;DHT22;3293;51.690;5.982;2023-04-03T03:32:24;1.70;99.90
6520;DHT22;3293;51.690;5.982;2023-04-03T03:37:24;1.70;99.90
6520;DHT22;3293;51.690;5.982;2023-04-03T03:42:24;1.60;99.90
6520;DHT22;3293;51.690;5.982;2023-04-03T03:47:25;1.60;99.90
6520;DHT22;3293;51.690;5.982;2023-04-03T03:52:26;1.50;99.90
6520;DHT22;3293;51.690;5.982;2023-04-03T03:57:26;1.40;99.90
6520;DHT22;3293;51.690;5.982;2023-04-03T04:02:28;1.40;99.90
6520;DHT22;3293;51.690;5.982;2023-04-03T04:07:28;1.40;99.90
6520;DHT22;3293;51.690;5.982;2023-04-03T04:12:29;1.40;99.90
6520;DHT22;3293;51.690;5.982;2023-04-03T04:17:28;1.30;99.90
6520;DHT22;3293;51.690;5.982;2023-04-03T04:22:28;1.30;99.90
6520;DHT22;3293;51.690;5.982;2023-04-03T04:27:28;1.30;99.90
6520;DHT22;3293;51.690;5.982;2023-04-03T04:32:29;1.30;99.90
6520;DHT22;3293;51.690;5.982;2023-04-03T04:37:29;1.20;99.90
6520;DHT22;3293;51.690;5.982;2023-04-03T04:42:29;1.20;99.90
6520;DHT22;3293;51.690;5.982;2023-04-03T04:47:29;1.20;99.90
6520;DHT22;3293;51.690;5.982;2023-04-03T04:52:30;1.10;99.90
6520;DHT22;3293;51.690;5.982;2023-04-03T04:57:29;1.10;99.90
6520;DHT22;3293;51.690;5.982;2023-04-03T05:02:29;1.10;99.90
6520;DHT22;3293;51.690;5.982;2023-04-03T05:07:30;1.10;99.90
6520;DHT22;3293;51.690;5.982;2023-04-03T05:12:29;1.20;99.90
6520;DHT22;3293;51.690;5.982;2023-04-03T05:17:29;1.20;99.90
6520;DHT22;3293;51.690;5.982;2023-04-03T05:22:29;1.10;99.90
6520;DHT22;3293;51.690;5.982;2023-04-03T05:27:29;1.20;99.90
6520;DHT22;3293;51.690;5.982;2023-04-03T05:32:29;1.20;99.90
6520;DHT22;3293;51.690;5.982;2023-04-03T05:37:29;1.20;99.90
6520;DHT22;3293;51.690;5.982;2023-04-03T05:42:29;1.30;99.90
6520;DHT22;3293;51.690;5.982;2023-04-03T05:47:29;1.40;99.90
6520;DHT22;3293;51.690;5.982;2023-04-03T05:52:38;1.50;99.90
6520;DHT22;3293;51.690;5.982;2023-04-03T05:57:39;1.60;99.90
6520;DHT22;3293;51.690;5.982;2023-04-03T06:02:40;1.70;99.90
6520;DHT22;3293;51.690;5.982;2023-04-03T06:07:41;1.90;99.90
6520;DHT22;3293;51.690;5.982;2023-04-03T06:12:41;2.10;99.90
6520;DHT22;3293;51.690;5.982;2023-04-03T06:17:41;2.50;99.90
6520;DHT22;3293;51.690;5.982;2023-04-03T06:22:41;3.00;99.90
6520;DHT22;3293;51.690;5.982;2023-04-03T06:27:41;3.50;99.90
6520;DHT22;3293;51.690;5.982;2023-04-03T06:32:41;3.60;99.90
6520;DHT22;3293;51.690;5.982;2023-04-03T06:37:42;3.30;99.90
6520;DHT22;3293;51.690;5.982;2023-04-03T06:42:42;3.10;99.90
6520;DHT22;3293;51.690;5.982;2023-04-03T06:47:43;3.40;99.90
6520;DHT22;3293;51.690;5.982;2023-04-03T06:52:43;3.70;99.90
6520;DHT22;3293;51.690;5.982;2023-04-03T06:57:43;4.00;99.90
6520;DHT22;3293;51.690;5.982;2023-04-03T07:02:43;4.50;99.90
6520;DHT22;3293;51.690;5.982;2023-04-03T07:07:43;5.10;99.90
6520;DHT22;3293;51.690;5.982;2023-04-03T07:12:44;5.90;99.90
6520;DHT22;3293;51.690;5.982;2023-04-03T07:17:44;7.30;98.40
6520;DHT22;3293;51.690;5.982;2023-04-03T07:22:45;7.80;98.20
6520;DHT22;3293;51.690;5.982;2023-04-03T07:27:46;8.20;91.90
6520;DHT22;3293;51.690;5.982;2023-04-03T07:32:47;8.50;87.20
6520;DHT22;3293;51.690;5.982;2023-04-03T07:37:47;9.20;78.80
6520;DHT22;3293;51.690;5.982;2023-04-03T07:42:47;8.70;81.00
6520;DHT22;3293;51.690;5.982;2023-04-03T07:47:48;9.20;84.00
6520;DHT22;3293;51.690;5.982;2023-04-03T07:52:48;9.70;65.50
6520;DHT22;3293;51.690;5.982;2023-04-03T07:57:50;9.40;73.70
6520;DHT22;3293;51.690;5.982;2023-04-03T08:02:50;9.50;62.20
6520;DHT22;3293;51.690;5.982;2023-04-03T08:07:51;9.60;61.30
6520;DHT22;3293;51.690;5.982;2023-04-03T08:12:51;9.60;61.30
6520;DHT22;3293;51.690;5.982;2023-04-03T08:17:51;9.70;54.80
6520;DHT22;3293;51.690;5.982;2023-04-03T08:22:51;10.00;51.60
6520;DHT22;3293;51.690;5.982;2023-04-03T08:27:51;10.90;42.80
6520;DHT22;3293;51.690;5.982;2023-04-03T08:32:51;10.40;45.90
6520;DHT22;3293;51.690;5.982;2023-04-03T08:37:51;10.70;38.70
6520;DHT22;3293;51.690;5.982;2023-04-03T08:43:01;10.80;36.90
6520;DHT22;3293;51.690;5.982;2023-04-03T08:48:15;11.10;32.60
6520;DHT22;3293;51.690;5.982;2023-04-03T08:53:26;11.10;36.30
6520;DHT22;3293;51.690;5.982;2023-04-03T08:58:36;11.10;28.10
6520;DHT22;3293;51.690;5.982;2023-04-03T09:03:41;11.20;27.40
6520;DHT22;3293;51.690;5.982;2023-04-03T09:14:15;11.30;26.00
6520;DHT22;3293;51.690;5.982;2023-04-03T09:20:38;10.80;24.00
6520;DHT22;3293;51.690;5.982;2023-04-03T09:25:27;10.20;24.40
6520;DHT22;3293;51.690;5.982;2023-04-03T09:30:29;9.80;25.30
6520;DHT22;3293;51.690;5.982;2023-04-03T09:35:31;9.00;27.60
6520;DHT22;3293;51.690;5.982;2023-04-03T09:40:36;8.90;26.10
6520;DHT22;3293;51.690;5.982;2023-04-03T09:45:38;8.60;26.40
6520;DHT22;3293;51.690;5.982;2023-04-03T09:55:51;7.80;23.10
6520;DHT22;3293;51.690;5.982;2023-04-03T10:00:57;7.60;26.20
6520;DHT22;3293;51.690;5.982;2023-04-03T10:05:58;7.70;27.10
6520;DHT22;3293;51.690;5.982;2023-04-03T10:11:25;7.70;23.60
6520;DHT22;3293;51.690;5.982;2023-04-03T10:16:45;7.60;26.00
6520;DHT22;3293;51.690;5.982;2023-04-03T10:22:00;7.80;25.80
6520;DHT22;3293;51.690;5.982;2023-04-03T10:32:41;7.90;27.30
6520;DHT22;3293;51.690;5.982;2023-04-03T10:48:23;8.00;22.90
6520;DHT22;3293;51.690;5.982;2023-04-03T10:59:13;8.00;25.80
6520;DHT22;3293;51.690;5.982;2023-04-03T11:04:19;8.00;25.90
6520;DHT22;3293;51.690;5.982;2023-04-03T11:09:33;8.10;25.70
6520;DHT22;3293;51.690;5.982;2023-04-03T11:14:38;8.20;26.40
6520;DHT22;3293;51.690;5.982;2023-04-03T11:20:03;8.20;27.30
6520;DHT22;3293;51.690;5.982;2023-04-03T11:30:23;8.20;27.70
6520;DHT22;3293;51.690;5.982;2023-04-03T11:35:25;8.40;28.70
6520;DHT22;3293;51.690;5.982;2023-04-03T11:40:29;8.50;29.10
6520;DHT22;3293;51.690;5.982;2023-04-03T11:45:35;8.30;29.20
6520;DHT22;3293;51.690;5.982;2023-04-03T11:50:43;8.40;29.80
6520;DHT22;3293;51.690;5.982;2023-04-03T12:01:05;8.50;30.30
6520;DHT22;3293;51.690;5.982;2023-04-03T12:16:28;8.70;27.60
6520;DHT22;3293;51.690;5.982;2023-04-03T12:32:10;8.90;28.90
6520;DHT22;3293;51.690;5.982;2023-04-03T12:37:39;8.80;29.20
6520;DHT22;3293;51.690;5.982;2023-04-03T12:42:55;8.90;29.70
6520;DHT22;3293;51.690;5.982;2023-04-03T12:47:56;8.90;32.30
6520;DHT22;3293;51.690;5.982;2023-04-03T12:53:00;9.00;32.40
6520;DHT22;3293;51.690;5.982;2023-04-03T12:58:15;8.90;30.80
6520;DHT22;3293;51.690;5.982;2023-04-03T13:03:23;8.80;33.10
6520;DHT22;3293;51.690;5.982;2023-04-03T13:08:24;8.80;34.80
6520;DHT22;3293;51.690;5.982;2023-04-03T13:13:24;8.90;35.90
6520;DHT22;3293;51.690;5.982;2023-04-03T13:18:32;9.10;33.10
6520;DHT22;3293;51.690;5.982;2023-04-03T13:23:35;9.10;31.00
6520;DHT22;3293;51.690;5.982;2023-04-03T13:28:36;8.90;29.90
6520;DHT22;3293;51.690;5.982;2023-04-03T13:33:37;8.80;32.20
6520;DHT22;3293;51.690;5.982;2023-04-03T13:38:37;8.90;34.00
6520;DHT22;3293;51.690;5.982;2023-04-03T13:43:37;9.00;34.60
6520;DHT22;3293;51.690;5.982;2023-04-03T13:48:41;9.10;34.30
6520;DHT22;3293;51.690;5.982;2023-04-03T13:53:48;9.20;35.80
6520;DHT22;3293;51.690;5.982;2023-04-03T13:58:59;9.20;31.70
6520;DHT22;3293;51.690;5.982;2023-04-03T14:04:11;9.30;31.70
6520;DHT22;3293;51.690;5.982;2023-04-03T14:09:11;9.10;33.50
6520;DHT22;3293;51.690;5.982;2023-04-03T14:14:18;9.00;31.80
6520;DHT22;3293;51.690;5.982;2023-04-03T14:19:25;9.00;35.10
6520;DHT22;3293;51.690;5.982;2023-04-03T14:24:25;9.10;35.10
6520;DHT22;3293;51.690;5.982;2023-04-03T14:29:26;9.10;28.90
6520;DHT22;3293;51.690;5.982;2023-04-03T14:34:26;9.00;29.40
6520;DHT22;3293;51.690;5.982;2023-04-03T14:39:27;9.10;31.60
6520;DHT22;3293;51.690;5.982;2023-04-03T14:44:27;8.90;32.60
6520;DHT22;3293;51.690;5.982;2023-04-03T14:49:28;8.90;34.10
6520;DHT22;3293;51.690;5.982;2023-04-03T14:54:29;8.80;34.30
6520;DHT22;3293;51.690;5.982;2023-04-03T14:59:31;8.90;34.20
6520;DHT22;3293;51.690;5.982;2023-04-03T15:04:31;9.00;35.30
6520;DHT22;3293;51.690;5.982;2023-04-03T15:09:31;9.10;36.20
6520;DHT22;3293;51.690;5.982;2023-04-03T15:14:31;9.00;35.50
6520;DHT22;3293;51.690;5.982;2023-04-03T15:19:37;9.00;35.40
6520;DHT22;3293;51.690;5.982;2023-04-03T15:24:37;8.90;38.40
6520;DHT22;3293;51.690;5.982;2023-04-03T15:29:38;8.90;36.60
6520;DHT22;3293;51.690;5.982;2023-04-03T15:34:39;8.80;38.10
6520;DHT22;3293;51.690;5.982;2023-04-03T15:39:39;8.80;39.00
6520;DHT22;3293;51.690;5.982;2023-04-03T15:44:39;8.80;39.20
6520;DHT22;3293;51.690;5.982;2023-04-03T15:49:40;8.80;36.70
6520;DHT22;3293;51.690;5.982;2023-04-03T15:54:40;8.80;36.10
6520;DHT22;3293;51.690;5.982;2023-04-03T15:59:39;8.70;37.10
6520;DHT22;3293;51.690;5.982;2023-04-03T16:04:40;8.60;39.30
6520;DHT22;3293;51.690;5.982;2023-04-03T16:09:40;8.60;39.10
6520;DHT22;3293;51.690;5.982;2023-04-03T16:14:40;8.60;41.70
6520;DHT22;3293;51.690;5.982;2023-04-03T16:19:40;8.60;41.70
6520;DHT22;3293;51.690;5.982;2023-04-03T16:24:40;8.50;41.50
6520;DHT22;3293;51.690;5.982;2023-04-03T16:29:40;8.40;40.00
6520;DHT22;3293;51.690;5.982;2023-04-03T16:34:40;8.40;40.20
6520;DHT22;3293;51.690;5.982;2023-04-03T16:39:40;8.40;43.10
6520;DHT22;3293;51.690;5.982;2023-04-03T16:44:40;8.40;48.70
6520;DHT22;3293;51.690;5.982;2023-04-03T16:49:40;8.40;44.80
6520;DHT22;3293;51.690;5.982;2023-04-03T16:54:40;8.30;44.30
6520;DHT22;3293;51.690;5.982;2023-04-03T16:59:40;8.10;44.90
6520;DHT22;3293;51.690;5.982;2023-04-03T17:04:40;8.10;43.90
6520;DHT22;3293;51.690;5.982;2023-04-03T17:09:40;8.00;45.10
6520;DHT22;3293;51.690;5.982;2023-04-03T17:14:40;7.90;47.60
6520;DHT22;3293;51.690;5.982;2023-04-03T17:19:41;7.90;49.40
6520;DHT22;3293;51.690;5.982;2023-04-03T17:24:43;7.80;50.60
6520;DHT22;3293;51.690;5.982;2023-04-03T17:29:43;7.70;50.00
6520;DHT22;3293;51.690;5.982;2023-04-03T17:34:45;7.60;49.20
6520;DHT22;3293;51.690;5.982;2023-04-03T17:39:45;7.60;50.50
6520;DHT22;3293;51.690;5.982;2023-04-03T17:44:45;7.50;51.20
6520;DHT22;3293;51.690;5.982;2023-04-03T17:49:45;7.40;53.10
6520;DHT22;3293;51.690;5.982;2023-04-03T17:54:45;7.30;55.20
6520;DHT22;3293;51.690;5.982;2023-04-03T17:59:45;7.20;55.30
6520;DHT22;3293;51.690;5.982;2023-04-03T18:04:45;7.10;56.10
6520;DHT22;3293;51.690;5.982;2023-04-03T18:09:46;7.00;58.40
6520;DHT22;3293;51.690;5.982;2023-04-03T18:14:48;6.90;60.00
6520;DHT22;3293;51.690;5.982;2023-04-03T18:19:48;6.70;61.70
6520;DHT22;3293;51.690;5.982;2023-04-03T18:24:51;6.60;62.20
6520;DHT22;3293;51.690;5.982;2023-04-03T18:29:55;6.50;63.60
6520;DHT22;3293;51.690;5.982;2023-04-03T18:34:56;6.30;67.50
6520;DHT22;3293;51.690;5.982;2023-04-03T18:39:58;6.30;70.30
6520;DHT22;3293;51.690;5.982;2023-04-03T18:45:00;6.00;69.80
6520;DHT22;3293;51.690;5.982;2023-04-03T18:50:00;6.00;75.40
6520;DHT22;3293;51.690;5.982;2023-04-03T18:55:00;5.90;77.00
6520;DHT22;3293;51.690;5.982;2023-04-03T19:00:00;5.80;77.20
6520;DHT22;3293;51.690;5.982;2023-04-03T19:05:00;5.70;76.10
6520;DHT22;3293;51.690;5.982;2023-04-03T19:10:00;5.60;77.90
6520;DHT22;3293;51.690;5.982;2023-04-03T19:15:00;5.60;77.40
6520;DHT22;3293;51.690;5.982;2023-04-03T19:20:00;5.50;77.70
6520;DHT22;3293;51.690;5.982;2023-04-03T19:25:00;5.50;83.10
6520;DHT22;3293;51.690;5.982;2023-04-03T19:30:01;5.30;82.90
6520;DHT22;3293;51.690;5.982;2023-04-03T19:35:01;5.20;86.00
6520;DHT22;3293;51.690;5.982;2023-04-03T19:40:02;5.20;87.60
6520;DHT22;3293;51.690;5.982;2023-04-03T19:45:03;5.00;89.30
6520;DHT22;3293;51.690;5.982;2023-04-03T19:50:04;4.90;90.40
6520;DHT22;3293;51.690;5.982;2023-04-03T19:55:04;4.70;92.40
6520;DHT22;3293;51.690;5.982;2023-04-03T20:00:05;4.60;93.50
6520;DHT22;3293;51.690;5.982;2023-04-03T20:05:06;4.40;96.60
6520;DHT22;3293;51.690;5.982;2023-04-03T20:10:06;4.20;97.90
6520;DHT22;3293;51.690;5.982;2023-04-03T20:15:07;4.10;99.30
6520;DHT22;3293;51.690;5.982;2023-04-03T20:20:08;3.90;99.90
6520;DHT22;3293;51.690;5.982;2023-04-03T20:25:10;3.70;99.90
6520;DHT22;3293;51.690;5.982;2023-04-03T20:30:12;3.50;99.90
6520;DHT22;3293;51.690;5.982;2023-04-03T20:35:12;3.40;99.90
6520;DHT22;3293;51.690;5.982;2023-04-03T20:40:13;3.60;99.90
6520;DHT22;3293;51.690;5.982;2023-04-03T20:45:14;3.70;99.90
6520;DHT22;3293;51.690;5.982;2023-04-03T20:50:14;3.60;99.90
6520;DHT22;3293;51.690;5.982;2023-04-03T20:55:15;3.50;99.90
6520;DHT22;3293;51.690;5.982;2023-04-03T21:00:15;3.60;99.90
6520;DHT22;3293;51.690;5.982;2023-04-03T21:05:19;3.50;99.90
6520;DHT22;3293;51.690;5.982;2023-04-03T21:21:01;3.50;99.90
6520;DHT22;3293;51.690;5.982;2023-04-03T21:26:02;3.30;99.90
6520;DHT22;3293;51.690;5.982;2023-04-03T21:31:02;3.20;99.90
6520;DHT22;3293;51.690;5.982;2023-04-03T21:36:02;3.20;99.90
6520;DHT22;3293;51.690;5.982;2023-04-03T21:41:02;3.10;99.90
6520;DHT22;3293;51.690;5.982;2023-04-03T21:46:03;3.20;99.90
6520;DHT22;3293;51.690;5.982;2023-04-03T21:51:05;3.10;99.90
6520;DHT22;3293;51.690;5.982;2023-04-03T21:56:05;3.00;99.90
6520;DHT22;3293;51.690;5.982;2023-04-03T22:01:09;3.00;99.90
6520;DHT22;3293;51.690;5.982;2023-04-03T22:06:11;2.70;99.90
6520;DHT22;3293;51.690;5.982;2023-04-03T22:11:13;2.40;99.90
6520;DHT22;3293;51.690;5.982;2023-04-03T22:16:13;2.10;99.90
6520;DHT22;3293;51.690;5.982;2023-04-03T22:21:13;1.90;99.90
6520;DHT22;3293;51.690;5.982;2023-04-03T22:26:13;1.80;99.90
6520;DHT22;3293;51.690;5.982;2023-04-03T22:31:14;1.70;99.90
6520;DHT22;3293;51.690;5.982;2023-04-03T22:36:15;1.60;99.90
6520;DHT22;3293;51.690;5.982;2023-04-03T22:41:14;1.50;99.90
6520;DHT22;3293;51.690;5.982;2023-04-03T22:46:15;1.50;99.90
6520;DHT22;3293;51.690;5.982;2023-04-03T22:51:15;1.40;99.90
6520;DHT22;3293;51.690;5.982;2023-04-03T22:56:15;1.30;99.90
6520;DHT22;3293;51.690;5.982;2023-04-03T23:01:15;1.20;99.90
6520;DHT22;3293;51.690;5.982;2023-04-03T23:06:15;1.10;99.90
6520;DHT22;3293;51.690;5.982;2023-04-03T23:11:15;1.10;99.90
6520;DHT22;3293;51.690;5.982;2023-04-03T23:16:15;1.00;99.90
6520;DHT22;3293;51.690;5.982;2023-04-03T23:21:15;1.00;99.90
6520;DHT22;3293;51.690;5.982;2023-04-03T23:26:15;0.90;99.90
6520;DHT22;3293;51.690;5.982;2023-04-03T23:31:15;0.80;99.90
6520;DHT22;3293;51.690;5.982;2023-04-03T23:36:16;0.80;99.90
6520;DHT22;3293;51.690;5.982;2023-04-03T23:41:17;0.80;99.90
6520;DHT22;3293;51.690;5.982;2023-04-03T23:46:17;0.90;99.90
6520;DHT22;3293;51.690;5.982;2023-04-03T23:51:18;0.80;99.90
6520;DHT22;3293;51.690;5.982;2023-04-03T23:56:18;0.70;99.90
